Time,TemperatureF,DewpointF,PressureIn,WindDirection,WindDirectionDegrees,WindSpeedMPH,WindSpeedGustMPH,Humidity,HourlyPrecipIn,Conditions,Clouds,dailyrainin,SoftwareType,DateUTC
2013-08-13 00:01:00,61.9,56.3,29.89,ENE,64,0.0,0.0,82,0.00,,---,0.00,VWS V14.01,2013-08-13 07:01:00,
2013-08-13 00:06:00,61.9,56.3,29.89,ENE,63,0.0,0.0,82,0.00,,---,0.00,VWS V14.01,2013-08-13 07:06:00,
2013-08-13 00:11:00,61.7,56.2,29.89,ESE,123,4.0,4.0,82,0.00,,---,0.00,VWS V14.01,2013-08-13 07:11:00,
2013-08-13 00:16:00,61.7,56.2,29.89,East,86,0.0,4.0,82,0.00,,---,0.00,VWS V14.01,2013-08-13 07:16:00,
2013-08-13 00:21:00,61.5,56.0,29.89,East,86,0.0,0.0,82,0.00,,---,0.00,VWS V14.01,2013-08-13 07:21:00,
2013-08-13 00:26:00,61.5,56.3,29.89,East,100,0.0,0.0,83,0.00,,---,0.00,VWS V14.01,2013-08-13 07:26:00,
2013-08-13 00:31:00,61.3,56.1,29.89,ENE,71,4.0,7.6,83,0.00,,---,0.00,VWS V14.01,2013-08-13 07:31:00,
2013-08-13 00:36:00,61.3,56.1,29.89,ENE,60,2.2,7.6,83,0.00,,---,0.00,VWS V14.01,2013-08-13 07:36:00,
2013-08-13 00:42:00,61.3,56.1,29.89,ESE,103,0.0,0.0,83,0.00,,---,0.00,VWS V14.01,2013-08-13 07:42:00,
2013-08-13 00:48:00,61.2,56.0,29.89,East,82,0.0,0.0,83,0.00,,---,0.00,VWS V14.01,2013-08-13 07:48:00,
2013-08-13 00:53:00,61.0,55.8,29.89,East,82,0.0,0.0,83,0.00,,---,0.00,VWS V14.01,2013-08-13 07:53:00,
2013-08-13 00:58:00,60.8,55.6,29.89,East,83,2.7,3.1,83,0.00,,---,0.00,VWS V14.01,2013-08-13 07:58:00,
2013-08-13 01:03:00,60.6,55.8,29.89,East,80,0.0,2.7,84,0.00,,---,0.00,VWS V14.01,2013-08-13 08:03:00,
2013-08-13 01:08:00,60.6,55.8,29.89,East,79,0.0,2.7,84,0.00,,---,0.00,VWS V14.01,2013-08-13 08:08:00,
2013-08-13 01:13:00,60.4,55.6,29.89,North,353,4.0,5.4,84,0.00,,---,0.00,VWS V14.01,2013-08-13 08:13:00,
2013-08-13 01:18:00,60.4,55.6,29.89,ENE,78,2.2,5.4,84,0.00,,---,0.00,VWS V14.01,2013-08-13 08:18:00,
2013-08-13 01:23:00,60.4,55.6,29.89,East,81,2.7,4.0,84,0.00,,---,0.00,VWS V14.01,2013-08-13 08:23:00,
2013-08-13 01:28:00,60.1,55.2,29.89,ENE,63,0.0,4.0,84,0.00,,---,0.00,VWS V14.01,2013-08-13 08:28:00,
2013-08-13 01:33:00,60.1,55.2,29.89,NNE,31,0.0,0.0,84,0.00,,---,0.00,VWS V14.01,2013-08-13 08:33:00,
2013-08-13 01:38:00,60.1,55.2,29.89,SE,127,3.6,3.6,84,0.00,,---,0.00,VWS V14.01,2013-08-13 08:38:00,
2013-08-13 01:44:00,60.1,55.2,29.89,ENE,65,0.0,2.2,84,0.00,,---,0.00,VWS V14.01,2013-08-13 08:44:00,
2013-08-13 01:49:00,59.7,54.9,29.89,East,90,0.0,2.2,84,0.00,,---,0.00,VWS V14.01,2013-08-13 08:49:00,
2013-08-13 01:54:00,59.5,55.0,29.89,North,7,2.2,4.0,85,0.00,,---,0.00,VWS V14.01,2013-08-13 08:54:00,
2013-08-13 01:59:00,59.4,54.9,29.89,ESE,120,0.0,5.4,85,0.00,,---,0.00,VWS V14.01,2013-08-13 08:59:00,
2013-08-13 02:05:00,59.2,54.7,29.89,NE,54,0.0,0.0,85,0.00,,---,0.00,VWS V14.01,2013-08-13 09:05:00,
2013-08-13 02:10:00,59.2,54.7,29.89,East,89,0.0,0.0,85,0.00,,---,0.00,VWS V14.01,2013-08-13 09:10:00,
2013-08-13 02:15:00,59.2,54.7,29.89,NE,34,3.6,4.5,85,0.00,,---,0.00,VWS V14.01,2013-08-13 09:15:00,
2013-08-13 02:20:00,59.2,54.7,29.89,SSE,162,3.6,3.6,85,0.00,,---,0.00,VWS V14.01,2013-08-13 09:20:00,
2013-08-13 02:25:00,59.2,54.7,29.89,ESE,119,3.1,3.6,85,0.00,,---,0.00,VWS V14.01,2013-08-13 09:25:00,
2013-08-13 02:30:00,59.4,54.9,29.89,East,101,0.0,0.0,85,0.00,,---,0.00,VWS V14.01,2013-08-13 09:30:00,
2013-08-13 02:35:00,59.4,54.9,29.89,SE,128,0.0,4.0,85,0.00,,---,0.00,VWS V14.01,2013-08-13 09:35:00,
2013-08-13 02:40:00,59.4,54.9,29.89,SSE,148,0.0,2.2,85,0.00,,---,0.00,VWS V14.01,2013-08-13 09:40:00,
2013-08-13 02:46:00,59.5,55.0,29.89,South,169,5.4,5.4,85,0.00,,---,0.00,VWS V14.01,2013-08-13 09:46:00,
2013-08-13 02:51:00,59.7,55.2,29.89,East,92,0.0,4.0,85,0.00,,---,0.00,VWS V14.01,2013-08-13 09:51:00,
2013-08-13 02:56:00,59.9,55.4,29.89,ENE,69,0.0,4.0,85,0.00,,---,0.00,VWS V14.01,2013-08-13 09:56:00,
2013-08-13 03:01:00,59.7,54.9,29.89,East,88,0.0,0.0,84,0.00,,---,0.00,VWS V14.01,2013-08-13 10:01:00,
2013-08-13 03:06:00,59.5,54.7,29.89,ESE,121,0.0,0.0,84,0.00,,---,0.00,VWS V14.01,2013-08-13 10:06:00,
2013-08-13 03:12:00,59.4,54.5,29.89,SSW,194,6.3,6.3,84,0.00,,---,0.00,VWS V14.01,2013-08-13 10:12:00,
2013-08-13 03:17:00,59.4,54.5,29.89,ESE,110,2.7,6.3,84,0.00,,---,0.00,VWS V14.01,2013-08-13 10:17:00,
2013-08-13 03:22:00,59.2,54.4,29.89,ESE,114,0.0,3.6,84,0.00,,---,0.00,VWS V14.01,2013-08-13 10:22:00,
2013-08-13 03:27:00,59.0,54.5,29.89,ENE,76,2.7,4.0,85,0.00,,---,0.00,VWS V14.01,2013-08-13 10:27:00,
2013-08-13 03:32:00,58.8,54.3,29.89,NNE,22,3.6,3.6,85,0.00,,---,0.00,VWS V14.01,2013-08-13 10:32:00,
2013-08-13 03:37:00,58.8,54.3,29.89,ENE,72,2.7,3.6,85,0.00,,---,0.00,VWS V14.01,2013-08-13 10:37:00,
2013-08-13 03:42:00,58.6,54.2,29.89,East,96,2.7,4.0,85,0.00,,---,0.00,VWS V14.01,2013-08-13 10:42:00,
2013-08-13 03:47:00,58.6,54.2,29.89,ESE,117,0.0,4.9,85,0.00,,---,0.00,VWS V14.01,2013-08-13 10:47:00,
2013-08-13 03:52:00,58.5,54.0,29.89,East,99,0.0,0.0,85,0.00,,---,0.00,VWS V14.01,2013-08-13 10:52:00,
2013-08-13 03:57:00,58.3,53.8,29.89,ESE,110,0.0,3.1,85,0.00,,---,0.00,VWS V14.01,2013-08-13 10:57:00,
2013-08-13 04:02:00,58.1,53.9,29.89,East,92,4.0,4.0,86,0.00,,---,0.00,VWS V14.01,2013-08-13 11:02:00,
2013-08-13 04:08:00,58.3,54.1,29.92,SE,136,2.2,5.4,86,0.00,,---,0.00,VWS V14.01,2013-08-13 11:08:00,
2013-08-13 04:13:00,58.3,54.1,29.92,NNE,17,0.0,3.1,86,0.00,,---,0.00,VWS V14.01,2013-08-13 11:13:00,
2013-08-13 04:18:00,58.1,53.9,29.92,SE,136,0.0,6.3,86,0.00,,---,0.00,VWS V14.01,2013-08-13 11:18:00,
2013-08-13 04:23:00,58.3,53.8,29.89,SE,139,0.0,2.7,85,0.00,,---,0.00,VWS V14.01,2013-08-13 11:23:00,
2013-08-13 04:28:00,58.3,53.8,29.89,ENE,65,2.7,5.4,85,0.00,,---,0.00,VWS V14.01,2013-08-13 11:28:00,
2013-08-13 04:33:00,58.5,54.0,29.89,ESE,109,2.2,5.8,85,0.00,,---,0.00,VWS V14.01,2013-08-13 11:33:00,
2013-08-13 04:38:00,58.5,54.0,29.89,East,98,0.0,5.8,85,0.00,,---,0.00,VWS V14.01,2013-08-13 11:38:00,
2013-08-13 04:43:00,58.3,53.8,29.89,SSE,147,0.0,6.3,85,0.00,,---,0.00,VWS V14.01,2013-08-13 11:43:00,
2013-08-13 04:48:00,58.1,53.6,29.89,East,83,3.1,6.3,85,0.00,,---,0.00,VWS V14.01,2013-08-13 11:48:00,
2013-08-13 04:53:00,57.9,53.4,29.89,ESE,122,3.1,5.8,85,0.00,,---,0.00,VWS V14.01,2013-08-13 11:53:00,
2013-08-13 04:59:00,57.7,53.3,29.89,South,180,5.4,5.8,85,0.00,,---,0.00,VWS V14.01,2013-08-13 11:59:00,
2013-08-13 05:04:00,57.6,53.1,29.89,ESE,119,3.6,5.8,85,0.00,,---,0.00,VWS V14.01,2013-08-13 12:04:00,
2013-08-13 05:10:00,57.6,53.1,29.89,SE,126,2.7,10.5,85,0.00,,---,0.00,VWS V14.01,2013-08-13 12:10:00,
2013-08-13 05:15:00,57.6,53.1,29.89,NNE,22,3.1,4.0,85,0.00,,---,0.00,VWS V14.01,2013-08-13 12:15:00,
2013-08-13 05:20:00,57.6,53.1,29.89,SSE,152,3.1,5.4,85,0.00,,---,0.00,VWS V14.01,2013-08-13 12:20:00,
2013-08-13 05:25:00,57.6,53.1,29.89,SSE,147,2.7,4.9,85,0.00,,---,0.00,VWS V14.01,2013-08-13 12:25:00,
2013-08-13 05:30:00,57.7,53.6,29.89,East,99,0.0,0.0,86,0.00,,---,0.00,VWS V14.01,2013-08-13 12:30:00,
2013-08-13 05:35:00,57.7,53.6,29.92,East,80,4.0,4.5,86,0.00,,---,0.00,VWS V14.01,2013-08-13 12:35:00,
2013-08-13 05:40:00,58.1,53.6,29.92,ESE,106,5.8,5.8,85,0.00,,---,0.00,VWS V14.01,2013-08-13 12:40:00,
2013-08-13 05:45:00,58.6,54.2,29.92,SE,143,0.0,5.8,85,0.00,,---,0.00,VWS V14.01,2013-08-13 12:45:00,
2013-08-13 05:50:00,58.8,54.0,29.92,East,81,0.0,0.0,84,0.00,,---,0.00,VWS V14.01,2013-08-13 12:50:00,
2013-08-13 05:55:00,58.8,54.0,29.92,ESE,119,2.7,5.8,84,0.00,,---,0.00,VWS V14.01,2013-08-13 12:55:00,
2013-08-13 06:01:00,58.8,54.0,29.92,North,349,2.7,2.7,84,0.00,,---,0.00,VWS V14.01,2013-08-13 13:01:00,
2013-08-13 06:06:00,58.6,53.8,29.89,ESE,112,2.2,4.0,84,0.00,,---,0.00,VWS V14.01,2013-08-13 13:06:00,
2013-08-13 06:11:00,58.5,53.7,29.89,SW,233,0.0,6.3,84,0.00,,---,0.00,VWS V14.01,2013-08-13 13:11:00,
2013-08-13 06:16:00,58.1,53.3,29.89,ENE,73,0.0,6.3,84,0.00,,---,0.00,VWS V14.01,2013-08-13 13:16:00,
2013-08-13 06:21:00,58.1,53.3,29.92,NNE,25,3.1,3.6,84,0.00,,---,0.00,VWS V14.01,2013-08-13 13:21:00,
2013-08-13 06:26:00,57.7,53.0,29.92,NW,325,3.6,3.6,84,0.00,,---,0.00,VWS V14.01,2013-08-13 13:26:00,
2013-08-13 06:31:00,57.6,52.8,29.92,WNW,283,6.3,6.7,84,0.00,,---,0.00,VWS V14.01,2013-08-13 13:31:00,
2013-08-13 06:36:00,57.4,52.6,29.92,East,79,0.0,6.7,84,0.00,,---,0.00,VWS V14.01,2013-08-13 13:36:00,
2013-08-13 06:41:00,57.2,52.4,29.92,ESE,114,2.7,5.8,84,0.00,,---,0.00,VWS V14.01,2013-08-13 13:41:00,
2013-08-13 06:47:00,57.0,52.6,29.92,ENE,74,0.0,5.8,85,0.00,,---,0.00,VWS V14.01,2013-08-13 13:47:00,
2013-08-13 06:52:00,57.0,52.6,29.92,ESE,119,0.0,0.0,85,0.00,,---,0.00,VWS V14.01,2013-08-13 13:52:00,
2013-08-13 06:57:00,56.8,52.4,29.92,NE,48,0.0,0.0,85,0.00,,---,0.00,VWS V14.01,2013-08-13 13:57:00,
2013-08-13 07:02:00,56.7,52.2,29.92,ENE,57,0.0,0.0,85,0.00,,---,0.00,VWS V14.01,2013-08-13 14:02:00,
2013-08-13 07:07:00,56.7,52.5,29.92,ENE,78,0.0,5.4,86,0.00,,---,0.00,VWS V14.01,2013-08-13 14:07:00,
2013-08-13 07:12:00,56.5,52.3,29.92,East,99,2.7,2.7,86,0.00,,---,0.00,VWS V14.01,2013-08-13 14:12:00,
2013-08-13 07:17:00,56.3,52.2,29.92,East,99,0.0,3.1,86,0.00,,---,0.00,VWS V14.01,2013-08-13 14:17:00,
2013-08-13 07:22:00,56.3,52.2,29.92,East,81,2.7,4.0,86,0.00,,---,0.00,VWS V14.01,2013-08-13 14:22:00,
2013-08-13 07:27:00,56.3,52.5,29.92,East,93,2.7,4.0,87,0.00,,---,0.00,VWS V14.01,2013-08-13 14:27:00,
2013-08-13 07:32:00,56.3,52.5,29.92,East,81,2.7,2.7,87,0.00,,---,0.00,VWS V14.01,2013-08-13 14:32:00,
2013-08-13 07:38:00,56.3,52.5,29.92,ENE,67,3.1,5.4,87,0.00,,---,0.00,VWS V14.01,2013-08-13 14:38:00,
2013-08-13 07:43:00,56.3,52.5,29.92,ESE,120,2.2,3.6,87,0.00,,---,0.00,VWS V14.01,2013-08-13 14:43:00,
2013-08-13 07:49:00,56.5,53.0,29.92,ESE,114,0.0,3.6,88,0.00,,---,0.00,VWS V14.01,2013-08-13 14:49:00,
2013-08-13 07:54:00,56.8,53.3,29.95,SSE,156,0.0,5.4,88,0.00,,---,0.00,VWS V14.01,2013-08-13 14:54:00,
2013-08-13 07:59:00,57.2,53.4,29.95,East,97,0.0,5.4,87,0.00,,---,0.00,VWS V14.01,2013-08-13 14:59:00,
2013-08-13 08:04:00,57.2,53.4,29.95,East,97,0.0,0.0,87,0.00,,---,0.00,VWS V14.01,2013-08-13 15:04:00,
2013-08-13 08:09:00,57.4,53.5,29.92,East,85,0.0,3.1,87,0.00,,---,0.00,VWS V14.01,2013-08-13 15:09:00,
2013-08-13 08:14:00,57.7,53.9,29.92,WNW,302,3.6,3.6,87,0.00,,---,0.00,VWS V14.01,2013-08-13 15:14:00,
2013-08-13 08:19:00,57.9,54.1,29.92,NW,312,0.0,4.9,87,0.00,,---,0.00,VWS V14.01,2013-08-13 15:19:00,
2013-08-13 08:24:00,58.3,54.4,29.92,SSW,195,0.0,0.0,87,0.00,,---,0.00,VWS V14.01,2013-08-13 15:24:00,
2013-08-13 08:30:00,58.5,54.6,29.92,SSE,159,0.0,0.0,87,0.00,,---,0.00,VWS V14.01,2013-08-13 15:30:00,
2013-08-13 08:35:00,58.6,54.8,29.95,SSE,159,0.0,0.0,87,0.00,,---,0.00,VWS V14.01,2013-08-13 15:35:00,
2013-08-13 08:40:00,58.8,55.0,29.95,East,100,0.0,0.0,87,0.00,,---,0.00,VWS V14.01,2013-08-13 15:40:00,
2013-08-13 08:45:00,59.0,55.1,29.95,East,100,0.0,0.0,87,0.00,,---,0.00,VWS V14.01,2013-08-13 15:45:00,
2013-08-13 08:50:00,59.2,55.3,29.95,ESE,110,0.0,0.0,87,0.00,,---,0.00,VWS V14.01,2013-08-13 15:50:00,
2013-08-13 08:55:00,59.2,55.3,29.95,ESE,110,0.0,0.0,87,0.00,,---,0.00,VWS V14.01,2013-08-13 15:55:00,
2013-08-13 09:00:00,59.4,55.5,29.95,ESE,110,0.0,0.0,87,0.00,,---,0.00,VWS V14.01,2013-08-13 16:00:00,
2013-08-13 09:05:00,59.7,55.5,29.95,SSW,199,0.0,0.0,86,0.00,,---,0.00,VWS V14.01,2013-08-13 16:05:00,
2013-08-13 09:10:00,59.7,55.5,29.95,SSW,199,0.0,0.0,86,0.00,,---,0.00,VWS V14.01,2013-08-13 16:10:00,
2013-08-13 09:15:00,59.9,55.7,29.95,SSW,199,0.0,0.0,86,0.00,,---,0.00,VWS V14.01,2013-08-13 16:15:00,
2013-08-13 09:20:00,60.1,55.9,29.92,SSW,210,0.0,0.0,86,0.00,,---,0.00,VWS V14.01,2013-08-13 16:20:00,
2013-08-13 09:25:00,60.3,55.7,29.92,SSW,210,0.0,0.0,85,0.00,,---,0.00,VWS V14.01,2013-08-13 16:25:00,
2013-08-13 09:31:00,60.4,55.9,29.92,South,180,0.0,0.0,85,0.00,,---,0.00,VWS V14.01,2013-08-13 16:31:00,
2013-08-13 09:36:00,60.6,56.1,29.95,SSE,166,0.0,0.0,85,0.00,,---,0.00,VWS V14.01,2013-08-13 16:36:00,
2013-08-13 09:41:00,61.0,56.1,29.95,SSE,166,0.0,0.0,84,0.00,,---,0.00,VWS V14.01,2013-08-13 16:41:00,
2013-08-13 09:46:00,61.3,56.5,29.95,North,353,0.0,0.0,84,0.00,,---,0.00,VWS V14.01,2013-08-13 16:46:00,
2013-08-13 09:51:00,61.7,56.8,29.92,ESE,117,0.0,3.6,84,0.00,,---,0.00,VWS V14.01,2013-08-13 16:51:00,
2013-08-13 09:56:00,61.9,57.0,29.92,SSE,154,0.0,3.6,84,0.00,,---,0.00,VWS V14.01,2013-08-13 16:56:00,
2013-08-13 10:01:00,62.2,57.0,29.92,SE,128,0.0,2.2,83,0.00,,---,0.00,VWS V14.01,2013-08-13 17:01:00,
2013-08-13 10:06:00,62.6,57.0,29.92,SE,139,3.1,3.6,82,0.00,,---,0.00,VWS V14.01,2013-08-13 17:06:00,
2013-08-13 10:12:00,63.3,57.0,29.92,SSW,198,2.2,3.6,80,0.00,,---,0.00,VWS V14.01,2013-08-13 17:12:00,
2013-08-13 10:17:00,63.9,56.9,29.92,SSW,193,0.0,3.6,78,0.00,,---,0.00,VWS V14.01,2013-08-13 17:17:00,
2013-08-13 10:23:00,64.4,56.7,29.92,SSW,193,0.0,0.0,76,0.00,,---,0.00,VWS V14.01,2013-08-13 17:23:00,
2013-08-13 10:28:00,64.8,57.4,29.92,SW,219,0.0,0.0,77,0.00,,---,0.00,VWS V14.01,2013-08-13 17:28:00,
2013-08-13 10:33:00,65.5,57.4,29.92,SSE,162,0.0,0.0,75,0.00,,---,0.00,VWS V14.01,2013-08-13 17:33:00,
2013-08-13 10:38:00,66.0,57.1,29.92,SSE,162,0.0,0.0,73,0.00,,---,0.00,VWS V14.01,2013-08-13 17:38:00,
2013-08-13 10:43:00,66.4,57.8,29.92,SE,125,0.0,0.0,74,0.00,,---,0.00,VWS V14.01,2013-08-13 17:43:00,
2013-08-13 10:49:00,66.9,56.8,29.92,SE,134,0.0,0.0,70,0.00,,---,0.00,VWS V14.01,2013-08-13 17:49:00,
2013-08-13 10:54:00,67.5,57.7,29.92,ESE,112,0.0,0.0,71,0.00,,---,0.00,VWS V14.01,2013-08-13 17:54:00,
2013-08-13 10:59:00,67.6,58.3,29.92,ESE,112,0.0,0.0,72,0.00,,---,0.00,VWS V14.01,2013-08-13 17:59:00,
2013-08-13 11:04:00,68.0,58.3,29.92,SE,128,0.0,0.0,71,0.00,,---,0.00,VWS V14.01,2013-08-13 18:04:00,
2013-08-13 11:09:00,68.2,58.0,29.92,SE,146,0.0,0.0,70,0.00,,---,0.00,VWS V14.01,2013-08-13 18:09:00,
2013-08-13 11:14:00,68.7,57.3,29.92,SSE,147,0.0,0.0,67,0.00,,---,0.00,VWS V14.01,2013-08-13 18:14:00,
2013-08-13 11:19:00,69.4,57.2,29.92,SW,215,0.0,0.0,65,0.00,,---,0.00,VWS V14.01,2013-08-13 18:19:00,
2013-08-13 11:24:00,70.0,57.7,29.92,SW,215,0.0,0.0,65,0.00,,---,0.00,VWS V14.01,2013-08-13 18:24:00,
2013-08-13 11:29:00,70.5,58.6,29.92,SW,223,0.0,0.0,66,0.00,,---,0.00,VWS V14.01,2013-08-13 18:29:00,
2013-08-13 11:34:00,71.2,58.9,29.92,SSE,154,0.0,4.0,65,0.00,,---,0.00,VWS V14.01,2013-08-13 18:34:00,
2013-08-13 11:39:00,71.8,58.1,29.92,South,179,2.7,4.0,62,0.00,,---,0.00,VWS V14.01,2013-08-13 18:39:00,
2013-08-13 11:44:00,72.9,54.8,29.92,West,265,0.0,2.7,53,0.00,,---,0.00,VWS V14.01,2013-08-13 18:44:00,
2013-08-13 11:50:00,73.8,56.6,29.92,NNW,336,0.0,2.7,55,0.00,,---,0.00,VWS V14.01,2013-08-13 18:50:00,
2013-08-13 11:55:00,74.5,54.1,29.92,South,178,0.0,2.7,49,0.00,,---,0.00,VWS V14.01,2013-08-13 18:55:00,
2013-08-13 12:00:00,75.2,53.0,29.92,SSE,158,0.0,0.0,46,0.00,,---,0.00,VWS V14.01,2013-08-13 19:00:00,
2013-08-13 12:05:00,76.1,56.1,29.92,NW,324,0.0,0.0,50,0.00,,---,0.00,VWS V14.01,2013-08-13 19:05:00,
2013-08-13 12:10:00,76.8,56.8,29.92,NW,324,0.0,0.0,50,0.00,,---,0.00,VWS V14.01,2013-08-13 19:10:00,
2013-08-13 12:15:00,77.4,57.3,29.92,NW,324,0.0,0.0,50,0.00,,---,0.00,VWS V14.01,2013-08-13 19:15:00,
2013-08-13 12:21:00,78.1,56.2,29.89,North,0,0.0,0.0,47,0.00,,---,0.00,VWS V14.01,2013-08-13 19:21:00,
2013-08-13 12:27:00,78.8,55.7,29.89,North,0,0.0,0.0,45,0.00,,---,0.00,VWS V14.01,2013-08-13 19:27:00,
2013-08-13 12:32:00,79.2,55.4,29.89,SSW,211,2.2,4.9,44,0.00,,---,0.00,VWS V14.01,2013-08-13 19:32:00,
2013-08-13 12:37:00,79.3,54.9,29.89,SSW,211,0.0,4.9,43,0.00,,---,0.00,VWS V14.01,2013-08-13 19:37:00,
2013-08-13 12:42:00,79.7,54.6,29.89,SSW,198,0.0,0.0,42,0.00,,---,0.00,VWS V14.01,2013-08-13 19:42:00,
2013-08-13 12:47:00,80.4,55.2,29.89,SW,232,2.7,5.4,42,0.00,,---,0.00,VWS V14.01,2013-08-13 19:47:00,
2013-08-13 12:52:00,81.0,55.1,29.89,SW,221,3.6,4.0,41,0.00,,---,0.00,VWS V14.01,2013-08-13 19:52:00,
2013-08-13 12:57:00,81.3,55.4,29.89,SW,217,0.0,4.9,41,0.00,,---,0.00,VWS V14.01,2013-08-13 19:57:00,
2013-08-13 13:02:00,82.0,56.0,29.89,South,191,3.1,4.5,41,0.00,,---,0.00,VWS V14.01,2013-08-13 20:02:00,
2013-08-13 13:07:00,82.4,55.0,29.89,SW,231,0.0,5.4,39,0.00,,---,0.00,VWS V14.01,2013-08-13 20:07:00,
2013-08-13 13:13:00,82.9,55.5,29.89,NNW,327,0.0,0.0,39,0.00,,---,0.00,VWS V14.01,2013-08-13 20:13:00,
2013-08-13 13:18:00,83.5,55.2,29.89,WSW,237,3.6,5.4,38,0.00,,---,0.00,VWS V14.01,2013-08-13 20:18:00,
2013-08-13 13:23:00,83.7,53.1,29.89,SW,233,5.4,5.4,35,0.00,,---,0.00,VWS V14.01,2013-08-13 20:23:00,
2013-08-13 13:28:00,83.7,53.1,29.89,SW,217,0.0,5.4,35,0.00,,---,0.00,VWS V14.01,2013-08-13 20:28:00,
2013-08-13 13:33:00,84.2,52.8,29.89,South,190,5.4,5.4,34,0.00,,---,0.00,VWS V14.01,2013-08-13 20:33:00,
2013-08-13 13:38:00,84.4,52.2,29.89,SSW,201,2.2,5.4,33,0.00,,---,0.00,VWS V14.01,2013-08-13 20:38:00,
2013-08-13 13:43:00,84.7,51.6,29.89,ESE,116,0.0,6.7,32,0.00,,---,0.00,VWS V14.01,2013-08-13 20:43:00,
2013-08-13 13:48:00,85.1,52.8,29.89,SSE,164,0.0,6.7,33,0.00,,---,0.00,VWS V14.01,2013-08-13 20:48:00,
2013-08-13 13:54:00,85.5,51.4,29.89,WNW,296,0.0,4.0,31,0.00,,---,0.00,VWS V14.01,2013-08-13 20:54:00,
2013-08-13 13:59:00,85.5,51.4,29.89,SSW,198,0.0,4.0,31,0.00,,---,0.00,VWS V14.01,2013-08-13 20:59:00,
2013-08-13 14:04:00,85.5,50.5,29.89,SW,229,4.5,5.4,30,0.00,,---,0.00,VWS V14.01,2013-08-13 21:04:00,
2013-08-13 14:09:00,85.5,50.5,29.89,SSW,211,3.1,5.4,30,0.00,,---,0.00,VWS V14.01,2013-08-13 21:09:00,
2013-08-13 14:14:00,85.8,50.8,29.89,SW,227,2.7,5.8,30,0.00,,---,0.00,VWS V14.01,2013-08-13 21:14:00,
2013-08-13 14:19:00,86.0,51.0,29.89,SW,214,4.0,5.8,30,0.00,,---,0.00,VWS V14.01,2013-08-13 21:19:00,
2013-08-13 14:25:00,86.5,50.5,29.89,West,268,0.0,5.4,29,0.00,,---,0.00,VWS V14.01,2013-08-13 21:25:00,
2013-08-13 14:30:00,86.5,50.5,29.89,WSW,244,0.0,3.1,29,0.00,,---,0.00,VWS V14.01,2013-08-13 21:30:00,
2013-08-13 14:35:00,86.9,50.8,29.86,SW,233,3.1,4.0,29,0.00,,---,0.00,VWS V14.01,2013-08-13 21:35:00,
2013-08-13 14:40:00,87.1,50.1,29.86,SW,218,3.1,3.1,28,0.00,,---,0.00,VWS V14.01,2013-08-13 21:40:00,
2013-08-13 14:45:00,87.4,51.3,29.86,SW,226,0.0,4.0,29,0.00,,---,0.00,VWS V14.01,2013-08-13 21:45:00,
2013-08-13 14:50:00,87.8,50.7,29.86,NW,304,0.0,0.0,28,0.00,,---,0.00,VWS V14.01,2013-08-13 21:50:00,
2013-08-13 14:56:00,87.8,49.7,29.86,SSW,211,3.1,5.4,27,0.00,,---,0.00,VWS V14.01,2013-08-13 21:56:00,
2013-08-13 15:01:00,87.8,49.7,29.86,SW,216,0.0,0.0,27,0.00,,---,0.00,VWS V14.01,2013-08-13 22:01:00,
2013-08-13 15:06:00,87.8,49.7,29.86,South,183,2.7,5.4,27,0.00,,---,0.00,VWS V14.01,2013-08-13 22:06:00,
2013-08-13 15:11:00,87.8,48.7,29.86,WSW,238,4.0,5.4,26,0.00,,---,0.00,VWS V14.01,2013-08-13 22:11:00,
2013-08-13 15:16:00,87.6,48.5,29.86,SW,219,4.0,5.8,26,0.00,,---,0.00,VWS V14.01,2013-08-13 22:16:00,
2013-08-13 15:21:00,87.6,48.5,29.86,SW,235,0.0,4.0,26,0.00,,---,0.00,VWS V14.01,2013-08-13 22:21:00,
2013-08-13 15:26:00,87.4,49.4,29.86,SSW,197,5.8,5.8,27,0.00,,---,0.00,VWS V14.01,2013-08-13 22:26:00,
2013-08-13 15:31:00,87.1,47.0,29.86,West,270,0.0,5.8,25,0.00,,---,0.00,VWS V14.01,2013-08-13 22:31:00,
2013-08-13 15:36:00,86.5,47.6,29.86,SW,224,2.7,5.8,26,0.00,,---,0.00,VWS V14.01,2013-08-13 22:36:00,
2013-08-13 15:42:00,86.0,46.1,29.86,SW,233,3.1,5.8,25,0.00,,---,0.00,VWS V14.01,2013-08-13 22:42:00,
2013-08-13 15:47:00,85.6,45.8,29.86,SW,233,2.2,5.8,25,0.00,,---,0.00,VWS V14.01,2013-08-13 22:47:00,
2013-08-13 15:52:00,85.3,44.4,29.86,WNW,300,2.7,5.8,24,0.00,,---,0.00,VWS V14.01,2013-08-13 22:52:00,
2013-08-13 15:57:00,84.9,45.2,29.86,WSW,242,3.6,5.8,25,0.00,,---,0.00,VWS V14.01,2013-08-13 22:57:00,
2013-08-13 16:02:00,84.7,44.0,29.86,WSW,245,3.1,4.0,24,0.00,,---,0.00,VWS V14.01,2013-08-13 23:02:00,
2013-08-13 16:07:00,84.7,42.9,29.86,SW,231,0.0,4.0,23,0.00,,---,0.00,VWS V14.01,2013-08-13 23:07:00,
2013-08-13 16:12:00,84.6,43.8,29.86,WSW,258,0.0,0.0,24,0.00,,---,0.00,VWS V14.01,2013-08-13 23:12:00,
2013-08-13 16:17:00,84.6,43.8,29.86,SW,229,3.1,5.4,24,0.00,,---,0.00,VWS V14.01,2013-08-13 23:17:00,
2013-08-13 16:23:00,84.4,43.7,29.83,SW,224,4.9,4.9,24,0.00,,---,0.00,VWS V14.01,2013-08-13 23:23:00,
2013-08-13 16:28:00,84.2,43.5,29.83,WSW,238,3.6,5.4,24,0.00,,---,0.00,VWS V14.01,2013-08-13 23:28:00,
2013-08-13 16:33:00,84.4,43.7,29.83,WNW,292,0.0,6.3,24,0.00,,---,0.00,VWS V14.01,2013-08-13 23:33:00,
2013-08-13 16:38:00,84.4,42.6,29.83,WSW,240,4.0,6.3,23,0.00,,---,0.00,VWS V14.01,2013-08-13 23:38:00,
2013-08-13 16:43:00,84.4,42.6,29.83,WSW,238,0.0,4.0,23,0.00,,---,0.00,VWS V14.01,2013-08-13 23:43:00,
2013-08-13 16:48:00,84.2,45.6,29.83,NW,305,4.9,4.9,26,0.00,,---,0.00,VWS V14.01,2013-08-13 23:48:00,
2013-08-13 16:53:00,84.0,44.5,29.83,NW,305,0.0,0.0,25,0.00,,---,0.00,VWS V14.01,2013-08-13 23:53:00,
2013-08-13 16:58:00,83.7,49.0,29.83,WSW,251,2.7,4.9,30,0.00,,---,0.00,VWS V14.01,2013-08-13 23:58:00,
2013-08-13 17:03:00,83.1,48.5,29.83,WSW,241,0.0,3.6,30,0.00,,---,0.00,VWS V14.01,2013-08-14 00:03:00,
2013-08-13 17:08:00,82.9,48.3,29.83,SW,220,0.0,4.0,30,0.00,,---,0.00,VWS V14.01,2013-08-14 00:08:00,
2013-08-13 17:14:00,82.4,49.6,29.83,SW,234,0.0,0.0,32,0.00,,---,0.00,VWS V14.01,2013-08-14 00:14:00,
2013-08-13 17:19:00,81.7,51.4,29.83,SW,234,0.0,0.0,35,0.00,,---,0.00,VWS V14.01,2013-08-14 00:19:00,
2013-08-13 17:24:00,81.3,51.8,29.83,SW,234,0.0,0.0,36,0.00,,---,0.00,VWS V14.01,2013-08-14 00:24:00,
2013-08-13 17:29:00,80.6,50.5,29.83,SW,234,0.0,0.0,35,0.00,,---,0.00,VWS V14.01,2013-08-14 00:29:00,
2013-08-13 17:34:00,80.2,52.3,29.83,SW,234,0.0,0.0,38,0.00,,---,0.00,VWS V14.01,2013-08-14 00:34:00,
2013-08-13 17:39:00,79.7,53.3,29.83,WNW,301,0.0,0.0,40,0.00,,---,0.00,VWS V14.01,2013-08-14 00:39:00,
2013-08-13 17:44:00,79.3,53.0,29.83,WNW,301,0.0,2.7,40,0.00,,---,0.00,VWS V14.01,2013-08-14 00:44:00,
2013-08-13 17:49:00,79.0,54.6,29.83,WNW,301,0.0,2.7,43,0.00,,---,0.00,VWS V14.01,2013-08-14 00:49:00,
2013-08-13 17:54:00,78.4,54.1,29.83,WSW,256,0.0,3.6,43,0.00,,---,0.00,VWS V14.01,2013-08-14 00:54:00,
2013-08-13 17:59:00,77.9,54.3,29.83,WNW,285,0.0,3.6,44,0.00,,---,0.00,VWS V14.01,2013-08-14 00:59:00,
2013-08-13 18:05:00,77.7,54.7,29.83,WNW,285,0.0,0.0,45,0.00,,---,0.00,VWS V14.01,2013-08-14 01:05:00,
2013-08-13 18:10:00,77.4,54.4,29.83,WNW,285,0.0,0.0,45,0.00,,---,0.00,VWS V14.01,2013-08-14 01:10:00,
2013-08-13 18:15:00,76.8,55.1,29.83,WNW,286,0.0,0.0,47,0.00,,---,0.00,VWS V14.01,2013-08-14 01:15:00,
2013-08-13 18:20:00,76.5,54.8,29.83,WNW,285,0.0,0.0,47,0.00,,---,0.00,VWS V14.01,2013-08-14 01:20:00,
2013-08-13 18:25:00,76.1,55.0,29.83,WNW,285,0.0,0.0,48,0.00,,---,0.00,VWS V14.01,2013-08-14 01:25:00,
2013-08-13 18:30:00,75.7,55.8,29.83,WNW,285,0.0,0.0,50,0.00,,---,0.00,VWS V14.01,2013-08-14 01:30:00,
2013-08-13 18:35:00,75.2,53.6,29.83,WNW,286,0.0,0.0,47,0.00,,---,0.00,VWS V14.01,2013-08-14 01:35:00,
2013-08-13 18:40:00,74.8,55.0,29.83,WNW,286,0.0,0.0,50,0.00,,---,0.00,VWS V14.01,2013-08-14 01:40:00,
2013-08-13 18:45:00,74.5,55.2,29.83,WNW,286,0.0,0.0,51,0.00,,---,0.00,VWS V14.01,2013-08-14 01:45:00,
2013-08-13 18:50:00,74.1,54.9,29.83,WNW,286,0.0,0.0,51,0.00,,---,0.00,VWS V14.01,2013-08-14 01:50:00,
2013-08-13 18:56:00,73.6,55.4,29.83,WNW,286,0.0,0.0,53,0.00,,---,0.00,VWS V14.01,2013-08-14 01:56:00,
2013-08-13 19:01:00,73.2,55.1,29.83,WNW,285,0.0,0.0,53,0.00,,---,0.00,VWS V14.01,2013-08-14 02:01:00,
2013-08-13 19:06:00,72.7,55.6,29.83,WNW,286,0.0,0.0,55,0.00,,---,0.00,VWS V14.01,2013-08-14 02:06:00,
2013-08-13 19:11:00,72.1,55.1,29.83,WNW,286,0.0,0.0,55,0.00,,---,0.00,VWS V14.01,2013-08-14 02:11:00,
2013-08-13 19:17:00,71.8,55.8,29.83,WNW,285,0.0,0.0,57,0.00,,---,0.00,VWS V14.01,2013-08-14 02:17:00,
2013-08-13 19:22:00,71.2,55.2,29.83,WNW,285,0.0,0.0,57,0.00,,---,0.00,VWS V14.01,2013-08-14 02:22:00,
2013-08-13 19:27:00,70.7,54.7,29.83,NW,322,0.0,0.0,57,0.00,,---,0.00,VWS V14.01,2013-08-14 02:27:00,
2013-08-13 19:32:00,70.2,54.7,29.83,NNW,345,0.0,0.0,58,0.00,,---,0.00,VWS V14.01,2013-08-14 02:32:00,
2013-08-13 19:37:00,69.6,54.2,29.83,North,353,0.0,0.0,58,0.00,,---,0.00,VWS V14.01,2013-08-14 02:37:00,
2013-08-13 19:43:00,69.3,54.3,29.83,North,353,0.0,0.0,59,0.00,,---,0.00,VWS V14.01,2013-08-14 02:43:00,
2013-08-13 19:48:00,68.9,54.0,29.83,North,353,0.0,0.0,59,0.00,,---,0.00,VWS V14.01,2013-08-14 02:48:00,
2013-08-13 19:53:00,68.4,54.4,29.83,North,353,0.0,0.0,61,0.00,,---,0.00,VWS V14.01,2013-08-14 02:53:00,
2013-08-13 19:58:00,68.0,54.5,29.83,North,353,0.0,0.0,62,0.00,,---,0.00,VWS V14.01,2013-08-14 02:58:00,
2013-08-13 20:03:00,67.8,55.2,29.83,North,353,0.0,0.0,64,0.00,,---,0.00,VWS V14.01,2013-08-14 03:03:00,
2013-08-13 20:08:00,67.5,55.3,29.83,North,353,0.0,0.0,65,0.00,,---,0.00,VWS V14.01,2013-08-14 03:08:00,
2013-08-13 20:14:00,67.3,55.1,29.83,North,353,0.0,0.0,65,0.00,,---,0.00,VWS V14.01,2013-08-14 03:14:00,
2013-08-13 20:21:00,66.9,55.2,29.83,North,353,0.0,0.0,66,0.00,,---,0.00,VWS V14.01,2013-08-14 03:21:00,
2013-08-13 20:26:00,66.7,55.5,29.83,North,353,0.0,0.0,67,0.00,,---,0.00,VWS V14.01,2013-08-14 03:26:00,
2013-08-13 20:31:00,66.4,55.1,29.83,North,353,0.0,0.0,67,0.00,,---,0.00,VWS V14.01,2013-08-14 03:31:00,
2013-08-13 20:36:00,66.0,54.8,29.83,North,353,0.0,0.0,67,0.00,,---,0.00,VWS V14.01,2013-08-14 03:36:00,
2013-08-13 20:41:00,66.0,55.2,29.83,North,353,0.0,0.0,68,0.00,,---,0.00,VWS V14.01,2013-08-14 03:41:00,
2013-08-13 20:46:00,65.7,54.8,29.83,North,353,0.0,0.0,68,0.00,,---,0.00,VWS V14.01,2013-08-14 03:46:00,
2013-08-13 20:51:00,65.5,55.0,29.83,North,353,0.0,0.0,69,0.00,,---,0.00,VWS V14.01,2013-08-14 03:51:00,
2013-08-13 20:57:00,65.3,54.9,29.83,North,353,0.0,0.0,69,0.00,,---,0.00,VWS V14.01,2013-08-14 03:57:00,
2013-08-13 21:01:00,65.1,54.7,29.83,North,353,0.0,0.0,69,0.00,,---,0.00,VWS V14.01,2013-08-14 04:01:00,
2013-08-13 21:02:00,65.1,54.7,29.83,North,353,0.0,0.0,69,0.00,,---,0.00,VWS V14.01,2013-08-14 04:02:00,
2013-08-13 21:03:00,65.1,54.7,29.83,North,353,0.0,0.0,69,0.00,,---,0.00,VWS V14.01,2013-08-14 04:03:00,
2013-08-13 21:08:00,64.9,54.9,29.83,North,353,0.0,0.0,70,0.00,,---,0.00,VWS V14.01,2013-08-14 04:08:00,
2013-08-13 21:13:00,64.8,54.8,29.83,North,353,0.0,0.0,70,0.00,,---,0.00,VWS V14.01,2013-08-14 04:13:00,
2013-08-13 21:18:00,64.6,54.6,29.83,North,353,0.0,0.0,70,0.00,,---,0.00,VWS V14.01,2013-08-14 04:18:00,
2013-08-13 21:23:00,64.4,54.8,29.83,North,353,0.0,0.0,71,0.00,,---,0.00,VWS V14.01,2013-08-14 04:23:00,
2013-08-13 21:28:00,64.2,55.0,29.83,North,353,0.0,0.0,72,0.00,,---,0.00,VWS V14.01,2013-08-14 04:28:00,
2013-08-13 21:33:00,64.0,54.8,29.83,North,353,0.0,0.0,72,0.00,,---,0.00,VWS V14.01,2013-08-14 04:33:00,
2013-08-13 21:38:00,63.9,54.7,29.83,North,353,0.0,0.0,72,0.00,,---,0.00,VWS V14.01,2013-08-14 04:38:00,
2013-08-13 21:43:00,63.9,55.0,29.83,North,353,0.0,0.0,73,0.00,,---,0.00,VWS V14.01,2013-08-14 04:43:00,
2013-08-13 21:48:00,63.9,55.0,29.83,North,353,0.0,0.0,73,0.00,,---,0.00,VWS V14.01,2013-08-14 04:48:00,
2013-08-13 21:53:00,63.7,55.2,29.86,North,353,0.0,0.0,74,0.00,,---,0.00,VWS V14.01,2013-08-14 04:53:00,
2013-08-13 21:58:00,63.5,55.1,29.86,North,353,0.0,0.0,74,0.00,,---,0.00,VWS V14.01,2013-08-14 04:58:00,
2013-08-13 22:04:00,63.3,54.9,29.86,North,353,0.0,0.0,74,0.00,,---,0.00,VWS V14.01,2013-08-14 05:04:00,
2013-08-13 22:09:00,63.0,54.9,29.86,North,353,0.0,0.0,75,0.00,,---,0.00,VWS V14.01,2013-08-14 05:09:00,
2013-08-13 22:14:00,63.0,54.9,29.86,North,353,0.0,0.0,75,0.00,,---,0.00,VWS V14.01,2013-08-14 05:14:00,
2013-08-13 22:19:00,62.6,54.6,29.86,North,353,0.0,0.0,75,0.00,,---,0.00,VWS V14.01,2013-08-14 05:19:00,
2013-08-13 22:24:00,62.6,54.9,29.86,North,353,0.0,0.0,76,0.00,,---,0.00,VWS V14.01,2013-08-14 05:24:00,
2013-08-13 22:29:00,62.4,55.1,29.86,North,353,0.0,0.0,77,0.00,,---,0.00,VWS V14.01,2013-08-14 05:29:00,
2013-08-13 22:34:00,62.2,55.0,29.86,North,353,0.0,0.0,77,0.00,,---,0.00,VWS V14.01,2013-08-14 05:34:00,
2013-08-13 22:39:00,62.2,55.0,29.86,North,353,0.0,0.0,77,0.00,,---,0.00,VWS V14.01,2013-08-14 05:39:00,
2013-08-13 22:44:00,61.9,54.2,29.86,North,353,0.0,0.0,76,0.00,,---,0.00,VWS V14.01,2013-08-14 05:44:00,
2013-08-13 22:49:00,61.7,54.4,29.86,North,353,0.0,0.0,77,0.00,,---,0.00,VWS V14.01,2013-08-14 05:49:00,
2013-08-13 22:55:00,61.5,54.2,29.86,North,353,0.0,0.0,77,0.00,,---,0.00,VWS V14.01,2013-08-14 05:55:00,
2013-08-13 23:00:00,61.3,54.1,29.86,North,353,0.0,0.0,77,0.00,,---,0.00,VWS V14.01,2013-08-14 06:00:00,
2013-08-13 23:05:00,61.3,54.1,29.86,North,353,0.0,0.0,77,0.00,,---,0.00,VWS V14.01,2013-08-14 06:05:00,
2013-08-13 23:10:00,61.2,54.3,29.86,North,353,0.0,0.0,78,0.00,,---,0.00,VWS V14.01,2013-08-14 06:10:00,
2013-08-13 23:15:00,61.0,54.1,29.86,North,353,0.0,0.0,78,0.00,,---,0.00,VWS V14.01,2013-08-14 06:15:00,
2013-08-13 23:20:00,61.0,54.1,29.86,North,353,0.0,0.0,78,0.00,,---,0.00,VWS V14.01,2013-08-14 06:20:00,
2013-08-13 23:25:00,61.0,54.4,29.86,North,353,0.0,0.0,79,0.00,,---,0.00,VWS V14.01,2013-08-14 06:25:00,
2013-08-13 23:30:00,60.8,54.3,29.86,North,353,0.0,0.0,79,0.00,,---,0.00,VWS V14.01,2013-08-14 06:30:00,
2013-08-13 23:35:00,60.6,54.4,29.86,North,353,0.0,0.0,80,0.00,,---,0.00,VWS V14.01,2013-08-14 06:35:00,
2013-08-13 23:40:00,60.4,54.2,29.86,North,353,0.0,0.0,80,0.00,,---,0.00,VWS V14.01,2013-08-14 06:40:00,
2013-08-13 23:46:00,60.1,53.9,29.86,North,353,0.0,0.0,80,0.00,,---,0.00,VWS V14.01,2013-08-14 06:46:00,
2013-08-13 23:51:00,60.1,53.9,29.86,North,353,0.0,0.0,80,0.00,,---,0.00,VWS V14.01,2013-08-14 06:51:00,
2013-08-13 23:56:00,60.1,53.9,29.86,North,353,0.0,0.0,80,0.00,,---,0.00,VWS V14.01,2013-08-14 06:56:00,